Time;durP1;ratioP1;P1;durP2;ratioP2;P2;SDS_P1;SDS_P2;PMS_P1;PMS_P2;Temp;Humidity;BMP_temperature;BMP_pressure;BME280_temperature;BME280_humidity;BME280_pressure;Samples;Min_cycle;Max_cycle;Signal;HPM_P1;HPM_P2
2022/08/27 00:02:01;;;;;;;8.30;4.80;;;20.10;99.90;;;;;;4855192;29;20241;-52
2022/08/27 00:04:30;;;;;;;8.17;4.33;;;20.10;99.90;;;;;;4866575;29;20331;-50
2022/08/27 00:06:58;;;;;;;8.70;4.50;;;20.10;99.90;;;;;;4868610;29;20242;-50
2022/08/27 00:09:27;;;;;;;9.20;5.20;;;20.10;99.90;;;;;;4865270;29;20663;-53
2022/08/27 00:11:56;;;;;;;9.13;4.53;;;20.00;99.90;;;;;;4867352;29;20719;-51
2022/08/27 00:14:26;;;;;;;8.03;4.70;;;20.00;99.90;;;;;;4869329;29;20257;-49
2022/08/27 00:16:56;;;;;;;7.20;4.03;;;20.00;99.90;;;;;;4867164;29;20245;-50
2022/08/27 00:19:24;;;;;;;9.93;4.20;;;20.00;99.90;;;;;;4865799;29;20246;-52
2022/08/27 00:21:54;;;;;;;8.43;4.10;;;20.00;99.90;;;;;;4865931;29;20261;-52
2022/08/27 00:24:22;;;;;;;9.30;4.30;;;20.00;99.90;;;;;;4868525;29;20647;-51
2022/08/27 00:26:52;;;;;;;8.00;3.80;;;20.00;99.90;;;;;;4867835;29;20676;-52
2022/08/27 00:29:20;;;;;;;10.60;4.30;;;19.90;99.90;;;;;;4858597;29;20244;-51
2022/08/27 00:31:48;;;;;;;9.60;3.93;;;19.90;99.90;;;;;;4868803;29;20246;-52
2022/08/27 00:34:23;;;;;;;8.23;4.00;;;19.90;99.90;;;;;;4870298;29;20686;-51
2022/08/27 00:36:52;;;;;;;6.93;3.83;;;19.90;99.90;;;;;;4869381;29;21101;-51
2022/08/27 00:39:20;;;;;;;10.07;4.10;;;19.80;99.90;;;;;;4867996;29;20744;-53
2022/08/27 00:41:48;;;;;;;9.20;4.23;;;19.80;99.90;;;;;;4868751;29;20247;-51
2022/08/27 00:44:17;;;;;;;10.27;4.33;;;19.80;99.90;;;;;;4867049;29;20248;-51
2022/08/27 00:46:47;;;;;;;8.90;4.10;;;19.80;99.90;;;;;;4865760;29;20328;-51
2022/08/27 00:49:19;;;;;;;9.30;3.40;;;19.80;99.90;;;;;;4854591;29;20249;-52
2022/08/27 00:51:55;;;;;;;10.03;3.60;;;19.80;99.90;;;;;;4858054;29;20249;-50
2022/08/27 00:54:25;;;;;;;9.87;4.30;;;19.70;99.90;;;;;;4867782;29;20247;-50
2022/08/27 00:56:53;;;;;;;9.27;4.30;;;19.70;99.90;;;;;;4866115;29;20249;-54
2022/08/27 00:59:24;;;;;;;8.47;4.10;;;19.70;99.90;;;;;;4863420;29;20233;-53
2022/08/27 01:04:40;;;;;;;8.17;3.63;;;19.60;99.90;;;;;;4866603;29;20713;-50
2022/08/27 01:07:10;;;;;;;8.27;3.70;;;19.60;99.90;;;;;;4867629;29;20785;-50
2022/08/27 01:09:39;;;;;;;7.07;3.70;;;19.60;99.90;;;;;;4864683;29;20618;-50
2022/08/27 01:12:10;;;;;;;6.90;3.47;;;19.60;99.90;;;;;;4866301;29;20789;-52
2022/08/27 01:14:38;;;;;;;7.83;3.70;;;19.50;99.90;;;;;;4867109;29;20753;-51
2022/08/27 01:17:09;;;;;;;7.03;3.80;;;19.50;99.90;;;;;;4867754;29;20246;-50
2022/08/27 01:19:42;;;;;;;8.53;3.90;;;19.60;99.90;;;;;;4862812;29;20614;-50
2022/08/27 01:22:23;;;;;;;6.30;3.50;;;19.60;99.90;;;;;;4867709;29;20242;-52
2022/08/27 01:24:54;;;;;;;6.57;3.27;;;19.60;99.90;;;;;;4866571;29;20749;-52
2022/08/27 01:27:27;;;;;;;8.67;4.07;;;19.50;99.90;;;;;;4864056;29;20244;-53
2022/08/27 01:29:55;;;;;;;6.53;3.70;;;19.50;99.90;;;;;;4863326;29;20694;-52
2022/08/27 01:32:26;;;;;;;8.53;3.63;;;19.50;99.90;;;;;;4866505;29;20810;-52
2022/08/27 01:34:54;;;;;;;10.43;4.07;;;19.50;99.90;;;;;;4865997;29;20260;-53
2022/08/27 01:37:24;;;;;;;7.97;3.53;;;19.50;99.90;;;;;;4865292;29;20717;-50
2022/08/27 01:39:56;;;;;;;8.57;3.90;;;19.50;99.90;;;;;;4858900;29;20274;-54
2022/08/27 01:42:30;;;;;;;7.20;3.80;;;19.50;99.90;;;;;;4869426;29;20324;-49
2022/08/27 01:45:00;;;;;;;9.33;3.77;;;19.50;99.90;;;;;;4868051;29;21347;-53
2022/08/27 01:47:32;;;;;;;9.97;3.90;;;19.60;99.90;;;;;;4868144;29;20237;-51
2022/08/27 01:50:01;;;;;;;7.80;3.87;;;19.60;99.90;;;;;;4863934;29;21383;-51
2022/08/27 01:52:30;;;;;;;9.80;3.57;;;19.60;99.90;;;;;;4861879;29;20445;-50
2022/08/27 01:55:00;;;;;;;6.77;3.67;;;19.70;99.90;;;;;;4861161;29;20246;-53
2022/08/27 01:57:28;;;;;;;7.90;3.50;;;19.70;99.90;;;;;;4866239;29;20670;-51
2022/08/27 01:59:57;;;;;;;7.57;3.67;;;19.70;99.90;;;;;;4859869;29;20285;-51
2022/08/27 02:02:25;;;;;;;10.07;3.90;;;19.60;99.90;;;;;;4866694;29;20761;-52
2022/08/27 02:04:53;;;;;;;9.00;4.13;;;19.60;99.90;;;;;;4866621;29;20785;-52
2022/08/27 02:07:22;;;;;;;8.10;3.70;;;19.60;99.90;;;;;;4866700;29;20249;-51
2022/08/27 02:09:50;;;;;;;8.33;4.00;;;19.60;99.90;;;;;;4862745;29;20245;-52
2022/08/27 02:12:20;;;;;;;8.23;3.60;;;19.70;99.90;;;;;;4863701;29;20242;-53
2022/08/27 02:14:48;;;;;;;9.37;3.90;;;19.60;99.90;;;;;;4868171;29;20333;-53
2022/08/27 02:17:16;;;;;;;8.93;3.80;;;19.70;99.90;;;;;;4870387;29;20244;-53
2022/08/27 02:19:45;;;;;;;9.60;4.00;;;19.70;99.90;;;;;;4866330;29;20272;-53
2022/08/27 02:22:13;;;;;;;9.27;3.73;;;19.70;99.90;;;;;;4868466;29;20242;-50
2022/08/27 02:24:41;;;;;;;7.63;4.17;;;19.70;99.90;;;;;;4870293;29;21163;-52
2022/08/27 02:27:09;;;;;;;9.63;4.50;;;19.70;99.90;;;;;;4867843;29;20245;-51
2022/08/27 02:29:38;;;;;;;8.57;3.73;;;19.70;99.90;;;;;;4850128;29;20249;-50
2022/08/27 02:32:07;;;;;;;8.20;3.80;;;19.70;99.90;;;;;;4869394;29;20244;-50
2022/08/27 02:34:49;;;;;;;10.43;3.90;;;19.70;99.90;;;;;;4867125;29;20639;-50
2022/08/27 02:37:17;;;;;;;7.50;4.00;;;19.70;99.90;;;;;;4866833;29;20729;-52
2022/08/27 02:39:45;;;;;;;9.50;4.20;;;19.70;99.90;;;;;;4869145;29;20241;-52
2022/08/27 02:42:14;;;;;;;12.90;5.03;;;19.70;99.90;;;;;;4870120;29;20249;-52
2022/08/27 02:44:43;;;;;;;9.20;3.80;;;19.70;99.90;;;;;;4871451;29;20235;-52
2022/08/27 02:47:13;;;;;;;9.97;4.57;;;19.70;99.90;;;;;;4867172;29;20718;-53
2022/08/27 02:49:41;;;;;;;9.10;4.13;;;19.70;99.90;;;;;;4863511;29;20415;-51
2022/08/27 02:52:09;;;;;;;8.93;4.33;;;19.60;99.90;;;;;;4870347;29;20245;-52
2022/08/27 02:54:37;;;;;;;8.43;4.20;;;19.60;99.90;;;;;;4870904;29;20606;-53
2022/08/27 02:57:06;;;;;;;13.07;5.00;;;19.60;99.90;;;;;;4871694;29;20613;-52
2022/08/27 02:59:34;;;;;;;8.57;4.17;;;19.60;99.90;;;;;;4864991;29;20252;-53
2022/08/27 03:02:04;;;;;;;9.93;4.40;;;19.50;99.90;;;;;;4865152;29;20791;-51
2022/08/27 03:04:32;;;;;;;14.60;5.07;;;19.50;99.90;;;;;;4866044;29;20233;-53
2022/08/27 03:07:00;;;;;;;7.80;4.37;;;19.50;99.90;;;;;;4865745;29;20247;-51
2022/08/27 03:09:28;;;;;;;8.37;4.10;;;19.50;99.90;;;;;;4863495;29;20234;-50
2022/08/27 03:11:57;;;;;;;12.93;4.40;;;19.50;99.90;;;;;;4867512;29;20579;-51
2022/08/27 03:14:25;;;;;;;8.10;4.50;;;19.50;99.90;;;;;;4869682;29;20958;-52
2022/08/27 03:16:53;;;;;;;10.17;5.40;;;19.40;99.90;;;;;;4871750;29;20252;-53
2022/08/27 03:19:21;;;;;;;8.33;4.57;;;19.40;99.90;;;;;;4868441;29;20244;-52
2022/08/27 03:21:51;;;;;;;10.97;4.70;;;19.30;99.90;;;;;;4868395;29;20269;-52
2022/08/27 03:24:22;;;;;;;11.13;5.20;;;19.30;99.90;;;;;;4868278;29;20769;-53
2022/08/27 03:26:51;;;;;;;10.97;4.77;;;19.20;99.90;;;;;;4864139;29;20276;-50
2022/08/27 03:29:21;;;;;;;15.57;5.10;;;19.20;99.90;;;;;;4855145;29;20331;-50
2022/08/27 03:31:49;;;;;;;10.00;5.17;;;19.30;99.90;;;;;;4867578;29;20594;-52
2022/08/27 03:34:17;;;;;;;10.57;5.10;;;19.20;99.90;;;;;;4870730;29;20823;-50
2022/08/27 03:36:50;;;;;;;12.00;5.47;;;19.20;99.90;;;;;;4869359;29;20244;-49
2022/08/27 03:39:18;;;;;;;11.30;5.60;;;19.20;99.90;;;;;;4865615;29;20251;-53
2022/08/27 03:41:46;;;;;;;10.10;5.60;;;19.20;99.90;;;;;;4868484;29;20248;-52
2022/08/27 03:44:23;;;;;;;11.70;5.50;;;19.20;99.90;;;;;;4860280;29;20240;-50
2022/08/27 03:46:52;;;;;;;8.97;5.60;;;19.20;99.90;;;;;;4868563;29;20263;-52
2022/08/27 03:49:21;;;;;;;11.17;5.63;;;19.30;99.90;;;;;;4865518;29;20887;-52
2022/08/27 03:51:52;;;;;;;10.00;5.33;;;19.30;99.90;;;;;;4863970;29;20252;-52
2022/08/27 03:54:21;;;;;;;8.40;5.33;;;19.20;99.90;;;;;;4865022;29;20367;-54
2022/08/27 03:56:49;;;;;;;13.03;5.83;;;19.30;99.90;;;;;;4870299;29;20319;-51
2022/08/27 03:59:17;;;;;;;14.63;6.00;;;19.30;99.90;;;;;;4863361;29;21113;-53
2022/08/27 04:01:46;;;;;;;11.60;6.13;;;19.30;99.90;;;;;;4855165;29;20253;-52
2022/08/27 04:04:14;;;;;;;11.50;5.63;;;19.20;99.90;;;;;;4869545;29;20721;-52
2022/08/27 04:06:42;;;;;;;13.50;6.57;;;19.30;99.90;;;;;;4868704;29;20308;-52
2022/08/27 04:09:12;;;;;;;10.13;6.27;;;19.30;99.90;;;;;;4864566;29;20236;-50
2022/08/27 04:11:40;;;;;;;10.23;6.40;;;19.30;99.90;;;;;;4862842;29;20241;-52
2022/08/27 04:14:09;;;;;;;10.47;5.40;;;19.20;99.90;;;;;;4868759;29;20238;-51
2022/08/27 04:16:54;;;;;;;10.17;5.03;;;19.20;99.90;;;;;;4862036;29;20238;-50
2022/08/27 04:19:23;;;;;;;10.50;5.07;;;19.30;99.90;;;;;;4869399;29;20249;-51
2022/08/27 04:22:00;;;;;;;13.47;5.43;;;19.30;99.90;;;;;;4869208;29;20923;-52
2022/08/27 04:24:31;;;;;;;11.23;4.20;;;19.20;99.90;;;;;;4869442;29;20240;-53
2022/08/27 04:26:59;;;;;;;11.07;4.07;;;19.20;99.90;;;;;;4869382;29;20237;-50
2022/08/27 04:29:28;;;;;;;9.13;3.63;;;19.20;99.90;;;;;;4868479;29;20248;-50
2022/08/27 04:31:56;;;;;;;6.77;3.43;;;19.20;99.90;;;;;;4868322;29;20253;-52
2022/08/27 04:34:24;;;;;;;9.00;3.27;;;19.20;99.90;;;;;;4866604;29;20711;-51
2022/08/27 04:36:54;;;;;;;11.37;3.37;;;19.20;99.90;;;;;;4865384;29;20712;-53
2022/08/27 04:39:23;;;;;;;11.40;3.20;;;19.20;99.90;;;;;;4863950;29;20332;-53
2022/08/27 04:41:54;;;;;;;7.77;3.17;;;19.20;99.90;;;;;;4867239;29;20745;-52
2022/08/27 04:44:24;;;;;;;10.07;3.30;;;19.20;99.90;;;;;;4865596;29;20907;-52
2022/08/27 04:46:55;;;;;;;10.70;3.60;;;19.20;99.90;;;;;;4868530;29;20583;-50
2022/08/27 04:49:25;;;;;;;7.63;3.20;;;19.30;99.90;;;;;;4865686;29;20248;-51
2022/08/27 04:51:53;;;;;;;7.43;2.80;;;19.20;99.90;;;;;;4866051;29;20250;-50
2022/08/27 04:54:22;;;;;;;9.57;3.17;;;19.20;99.90;;;;;;4868353;29;20774;-53
2022/08/27 04:57:02;;;;;;;7.57;3.47;;;19.20;99.90;;;;;;4865690;29;20642;-51
2022/08/27 04:59:31;;;;;;;8.30;3.07;;;19.20;99.90;;;;;;4867546;29;20249;-52
2022/08/27 05:02:00;;;;;;;7.93;3.20;;;19.20;99.90;;;;;;4867662;29;20256;-52
2022/08/27 05:04:32;;;;;;;8.13;3.17;;;19.20;99.90;;;;;;4865215;29;20664;-52
2022/08/27 05:07:00;;;;;;;10.17;3.37;;;19.20;99.90;;;;;;4855955;29;20247;-53
2022/08/27 05:09:28;;;;;;;9.77;3.37;;;19.10;99.90;;;;;;4857693;29;20235;-53
2022/08/27 05:11:56;;;;;;;6.83;2.80;;;19.10;99.90;;;;;;4859408;29;20367;-53
2022/08/27 05:14:28;;;;;;;7.67;3.37;;;19.10;99.90;;;;;;4867896;29;20593;-51
2022/08/27 05:16:57;;;;;;;6.93;3.00;;;19.00;99.90;;;;;;4866718;29;20803;-52
2022/08/27 05:19:26;;;;;;;6.40;2.83;;;19.00;99.90;;;;;;4848215;29;20249;-52
2022/08/27 05:21:54;;;;;;;8.57;3.60;;;19.00;99.90;;;;;;4866035;29;20261;-53
2022/08/27 05:24:23;;;;;;;11.20;3.33;;;19.00;99.90;;;;;;4865706;29;20709;-52
2022/08/27 05:26:51;;;;;;;8.47;3.27;;;19.00;99.90;;;;;;4863008;29;20721;-52
2022/08/27 05:29:19;;;;;;;11.13;3.50;;;19.10;99.90;;;;;;4862742;29;20237;-52
2022/08/27 05:31:49;;;;;;;8.10;3.40;;;19.00;99.90;;;;;;4862590;29;20725;-51
2022/08/27 05:34:17;;;;;;;7.77;3.43;;;19.00;99.90;;;;;;4868355;29;20889;-52
2022/08/27 05:36:53;;;;;;;7.67;3.20;;;19.00;99.90;;;;;;4869247;29;20243;-53
2022/08/27 05:39:21;;;;;;;8.93;3.83;;;19.00;99.90;;;;;;4872908;29;20344;-51
2022/08/27 05:41:51;;;;;;;10.00;3.40;;;19.10;99.90;;;;;;4866480;29;20761;-51
2022/08/27 05:44:19;;;;;;;8.50;3.27;;;19.10;99.90;;;;;;4866342;29;20734;-52
2022/08/27 05:47:08;;;;;;;8.30;3.50;;;19.10;99.90;;;;;;4869105;29;20759;-50
2022/08/27 05:49:37;;;;;;;9.87;3.43;;;19.10;99.90;;;;;;4867251;29;20242;-53
2022/08/27 05:52:08;;;;;;;6.83;3.43;;;19.10;99.90;;;;;;4873040;29;20601;-52
2022/08/27 05:54:36;;;;;;;11.43;3.80;;;19.10;99.90;;;;;;4879155;29;20713;-51
2022/08/27 05:57:05;;;;;;;11.63;3.33;;;19.00;99.90;;;;;;4869994;29;20697;-50
2022/08/27 06:02:20;;;;;;;8.57;3.40;;;19.00;99.90;;;;;;4870678;29;20737;-50
2022/08/27 06:04:48;;;;;;;11.77;3.27;;;19.00;99.90;;;;;;4877019;29;20240;-51
2022/08/27 06:07:17;;;;;;;7.67;3.27;;;19.00;99.90;;;;;;4876405;29;20237;-52
2022/08/27 06:09:46;;;;;;;8.47;3.67;;;19.00;99.90;;;;;;4868016;29;20232;-53
2022/08/27 06:12:14;;;;;;;7.50;3.03;;;19.00;99.90;;;;;;4866253;29;20241;-53
2022/08/27 06:14:42;;;;;;;10.43;3.23;;;18.90;99.90;;;;;;4859905;29;20359;-50
2022/08/27 06:17:10;;;;;;;8.73;3.23;;;19.00;99.90;;;;;;4871279;29;20251;-51
2022/08/27 06:19:41;;;;;;;9.33;3.27;;;19.00;99.90;;;;;;4871583;29;20237;-53
2022/08/27 06:22:09;;;;;;;9.27;3.27;;;19.00;99.90;;;;;;4861550;29;20240;-52
2022/08/27 06:24:39;;;;;;;7.90;3.07;;;19.10;99.90;;;;;;4878478;29;20236;-53
2022/08/27 06:27:10;;;;;;;8.63;2.90;;;19.10;99.90;;;;;;4879740;29;20323;-53
2022/08/27 06:29:38;;;;;;;8.00;3.10;;;19.10;99.90;;;;;;4881363;29;20251;-53
2022/08/27 06:32:08;;;;;;;7.87;3.10;;;19.20;99.90;;;;;;4882198;29;20239;-54
2022/08/27 06:34:37;;;;;;;11.10;3.90;;;19.20;99.90;;;;;;4880762;29;20722;-54
2022/08/27 06:37:07;;;;;;;8.53;2.80;;;19.30;99.90;;;;;;4879035;29;20235;-52
2022/08/27 06:39:37;;;;;;;6.67;3.00;;;19.40;99.90;;;;;;4878200;29;20335;-54
2022/08/27 06:42:06;;;;;;;5.90;2.67;;;19.50;99.90;;;;;;4870547;29;20307;-52
2022/08/27 06:44:34;;;;;;;8.53;2.83;;;19.50;99.90;;;;;;4870929;29;20765;-52
2022/08/27 06:47:03;;;;;;;9.73;3.23;;;19.40;99.90;;;;;;4871038;29;20241;-53
2022/08/27 06:49:32;;;;;;;8.47;3.07;;;19.40;99.90;;;;;;4870073;29;20230;-53
2022/08/27 06:52:00;;;;;;;6.40;2.60;;;19.40;99.90;;;;;;4871453;29;20251;-53
2022/08/27 06:54:31;;;;;;;7.23;2.77;;;19.40;99.90;;;;;;4871559;29;20241;-53
2022/08/27 06:56:59;;;;;;;5.97;2.63;;;19.40;99.90;;;;;;4870969;29;20709;-53
2022/08/27 06:59:27;;;;;;;9.23;2.90;;;19.40;99.90;;;;;;4869501;29;20714;-51
2022/08/27 07:01:55;;;;;;;4.90;2.50;;;19.50;99.90;;;;;;4870804;29;20240;-52
2022/08/27 07:04:26;;;;;;;7.63;3.00;;;19.50;99.90;;;;;;4870458;29;20241;-52
2022/08/27 07:07:01;;;;;;;8.27;2.87;;;19.60;99.90;;;;;;4869509;29;20231;-52
2022/08/27 07:09:31;;;;;;;9.77;3.30;;;19.60;99.90;;;;;;4870337;29;20225;-53
2022/08/27 07:12:00;;;;;;;9.00;2.87;;;19.70;99.90;;;;;;4871571;29;20233;-53
2022/08/27 07:14:29;;;;;;;7.10;2.73;;;19.70;99.90;;;;;;4871866;29;20241;-53
2022/08/27 07:17:02;;;;;;;6.87;2.60;;;19.80;99.90;;;;;;4881976;29;20721;-53
2022/08/27 07:19:31;;;;;;;8.57;2.80;;;19.80;99.90;;;;;;4870773;29;20263;-53
2022/08/27 07:21:59;;;;;;;7.73;2.70;;;19.90;99.90;;;;;;4849644;29;20240;-53
2022/08/27 07:24:27;;;;;;;7.30;2.53;;;19.90;99.90;;;;;;4849617;29;20248;-53
2022/08/27 07:26:57;;;;;;;9.13;2.87;;;19.90;99.90;;;;;;4848377;29;20238;-52
2022/08/27 07:29:26;;;;;;;8.47;2.90;;;19.80;99.90;;;;;;4848047;29;20248;-52
2022/08/27 07:31:59;;;;;;;6.87;2.50;;;19.80;99.90;;;;;;4848176;29;20817;-52
2022/08/27 07:34:27;;;;;;;6.63;2.53;;;19.80;99.90;;;;;;4848365;29;20535;-52
2022/08/27 07:36:55;;;;;;;6.10;2.40;;;19.90;99.90;;;;;;4849431;29;20246;-52
2022/08/27 07:39:23;;;;;;;8.13;2.57;;;19.90;99.90;;;;;;4847291;29;20238;-49
2022/08/27 07:44:38;;;;;;;5.77;2.77;;;20.20;99.90;;;;;;4849894;29;20249;-52
2022/08/27 07:47:07;;;;;;;7.60;2.70;;;20.10;99.90;;;;;;4870076;29;20330;-52
2022/08/27 07:49:36;;;;;;;4.47;2.27;;;20.10;99.90;;;;;;4868737;29;20245;-51
2022/08/27 07:52:04;;;;;;;5.33;2.00;;;20.10;99.90;;;;;;4870150;29;20320;-51
2022/08/27 07:54:33;;;;;;;5.43;2.40;;;20.20;99.90;;;;;;4869940;29;20623;-52
2022/08/27 07:57:01;;;;;;;9.77;2.70;;;20.30;99.90;;;;;;4870516;29;20243;-52
2022/08/27 07:59:29;;;;;;;8.03;2.33;;;20.30;99.90;;;;;;4869500;29;20240;-51
2022/08/27 08:01:58;;;;;;;6.57;2.50;;;20.50;99.90;;;;;;4869231;29;20256;-49
2022/08/27 08:04:26;;;;;;;7.47;2.70;;;20.50;99.90;;;;;;4869007;29;20233;-52
2022/08/27 08:06:55;;;;;;;6.23;2.63;;;20.60;99.90;;;;;;4868984;29;20226;-52
2022/08/27 08:09:24;;;;;;;5.87;2.53;;;20.50;99.90;;;;;;4867908;29;20718;-50
2022/08/27 08:11:52;;;;;;;5.33;2.70;;;20.50;99.90;;;;;;4869936;29;20329;-52
2022/08/27 08:14:21;;;;;;;6.70;2.43;;;20.40;99.90;;;;;;4869897;29;20341;-53
2022/08/27 08:16:49;;;;;;;6.40;3.30;;;20.50;99.90;;;;;;4870107;29;20317;-50
2022/08/27 08:19:19;;;;;;;9.53;4.03;;;20.40;99.90;;;;;;4869701;29;20255;-50
2022/08/27 08:21:47;;;;;;;8.07;4.80;;;20.50;99.90;;;;;;4869182;29;20276;-51
2022/08/27 08:24:15;;;;;;;8.47;6.33;;;20.50;99.90;;;;;;4869264;29;21314;-52
2022/08/27 08:26:44;;;;;;;12.97;7.40;;;20.50;99.90;;;;;;4868501;29;20241;-52
2022/08/27 08:29:12;;;;;;;9.90;5.67;;;20.40;99.90;;;;;;4867583;29;20317;-51
2022/08/27 08:31:45;;;;;;;11.43;4.67;;;20.30;99.90;;;;;;4868177;29;20818;-52
2022/08/27 08:34:19;;;;;;;8.83;4.40;;;20.20;99.90;;;;;;4868719;29;20985;-50
2022/08/27 08:36:48;;;;;;;9.43;4.00;;;20.20;99.90;;;;;;4868493;29;20592;-49
2022/08/27 08:39:22;;;;;;;9.83;3.90;;;20.30;99.90;;;;;;4861747;29;20680;-53
2022/08/27 08:41:53;;;;;;;9.67;3.23;;;20.30;99.90;;;;;;4868611;29;20246;-51
2022/08/27 08:44:31;;;;;;;10.03;2.83;;;20.30;99.90;;;;;;4869781;29;20245;-52
2022/08/27 08:47:03;;;;;;;9.17;3.27;;;20.30;99.90;;;;;;4868576;29;20245;-51
2022/08/27 08:49:48;;;;;;;7.23;2.83;;;20.40;99.90;;;;;;4867976;29;20717;-53
2022/08/27 08:52:30;;;;;;;5.07;2.70;;;20.50;99.90;;;;;;4869727;29;20230;-51
2022/08/27 08:55:08;;;;;;;5.80;2.57;;;20.60;99.90;;;;;;4869695;29;20245;-52
2022/08/27 08:57:42;;;;;;;8.27;2.83;;;20.70;99.90;;;;;;4870717;29;20667;-50
2022/08/27 09:00:13;;;;;;;9.03;2.80;;;20.50;99.90;;;;;;4868586;29;20244;-52
2022/08/27 09:02:50;;;;;;;6.60;2.93;;;20.50;99.90;;;;;;4869805;29;20247;-52
2022/08/27 09:05:21;;;;;;;6.90;2.87;;;20.50;99.90;;;;;;4870208;29;20590;-51
2022/08/27 09:08:02;;;;;;;7.93;2.47;;;20.60;99.90;;;;;;4870313;29;20240;-51
2022/08/27 09:10:57;;;;;;;7.17;2.50;;;20.80;99.90;;;;;;4868917;29;20232;-52
2022/08/27 09:13:30;;;;;;;5.77;2.50;;;20.80;99.90;;;;;;4868984;29;20236;-52
2022/08/27 09:16:02;;;;;;;8.23;2.73;;;20.80;99.90;;;;;;4868429;29;20282;-52
2022/08/27 09:18:33;;;;;;;7.37;2.63;;;20.70;99.90;;;;;;4867473;29;20490;-52
2022/08/27 09:21:10;;;;;;;8.83;3.00;;;20.60;99.90;;;;;;4867578;29;20601;-49
2022/08/27 09:23:52;;;;;;;7.00;2.80;;;20.70;99.90;;;;;;4869289;29;20670;-52
2022/08/27 09:26:24;;;;;;;6.43;2.60;;;20.50;99.90;;;;;;4868859;29;20236;-52
2022/08/27 09:29:15;;;;;;;7.13;2.40;;;20.50;99.90;;;;;;4867817;29;20614;-52
2022/08/27 09:31:45;;;;;;;8.73;4.20;;;20.60;99.90;;;;;;4867869;29;20250;-53
2022/08/27 09:34:14;;;;;;;8.47;3.93;;;20.60;99.90;;;;;;4870970;29;20250;-50
2022/08/27 09:36:59;;;;;;;8.73;3.00;;;20.70;99.90;;;;;;4870362;29;20245;-51
2022/08/27 09:39:39;;;;;;;6.43;3.50;;;20.80;99.90;;;;;;4865933;29;20252;-53
2022/08/27 09:42:08;;;;;;;11.30;3.67;;;20.70;99.90;;;;;;4868949;29;20240;-52
2022/08/27 09:44:46;;;;;;;8.30;3.37;;;20.70;99.90;;;;;;4869084;29;20713;-52
2022/08/27 09:47:20;;;;;;;10.23;3.07;;;20.80;99.90;;;;;;4867548;29;20328;-52
2022/08/27 09:49:48;;;;;;;18.43;4.40;;;20.80;99.90;;;;;;4866719;29;20251;-51
2022/08/27 09:52:33;;;;;;;11.23;2.97;;;20.90;99.90;;;;;;4865529;29;20252;-52
2022/08/27 09:55:05;;;;;;;9.60;2.80;;;20.90;99.90;;;;;;4864180;29;20784;-52
2022/08/27 09:57:39;;;;;;;8.03;2.60;;;21.00;99.90;;;;;;4872047;29;20777;-50
2022/08/27 10:00:13;;;;;;;7.27;2.33;;;21.00;99.90;;;;;;4869546;29;20238;-52
2022/08/27 10:02:50;;;;;;;8.30;2.40;;;21.00;99.90;;;;;;4868966;29;20320;-52
2022/08/27 10:05:26;;;;;;;8.07;2.30;;;21.10;99.90;;;;;;4856281;29;20236;-52
2022/08/27 10:08:00;;;;;;;7.83;2.33;;;21.10;99.90;;;;;;4866045;29;20337;-51
2022/08/27 10:10:43;;;;;;;6.40;2.13;;;21.30;99.90;;;;;;4860666;29;20278;-52
2022/08/27 10:13:17;;;;;;;9.03;2.13;;;21.50;99.90;;;;;;4866966;29;20903;-52
2022/08/27 10:15:56;;;;;;;8.87;2.23;;;21.70;99.90;;;;;;4869260;29;20334;-53
2022/08/27 10:18:30;;;;;;;7.80;2.20;;;22.10;99.90;;;;;;4867389;29;20612;-52
2022/08/27 10:21:06;;;;;;;7.67;1.87;;;22.20;99.90;;;;;;4864660;29;20250;-53
2022/08/27 10:23:44;;;;;;;7.13;2.17;;;22.20;99.90;;;;;;4862504;29;20237;-52
2022/08/27 10:26:20;;;;;;;6.93;2.30;;;22.10;99.90;;;;;;4861737;29;20235;-50
2022/08/27 10:29:01;;;;;;;8.00;2.00;;;22.00;99.90;;;;;;4870607;29;20769;-52
2022/08/27 10:31:38;;;;;;;8.33;2.23;;;22.10;99.90;;;;;;4863307;29;20616;-52
2022/08/27 10:34:20;;;;;;;6.87;1.90;;;22.00;99.90;;;;;;4871217;29;20238;-53
2022/08/27 10:36:59;;;;;;;9.00;1.93;;;21.90;99.90;;;;;;4871290;29;20264;-50
2022/08/27 10:39:48;;;;;;;6.40;1.77;;;21.80;99.90;;;;;;4867119;29;20238;-52
2022/08/27 10:42:25;;;;;;;6.60;1.80;;;21.80;99.90;;;;;;4867639;29;21297;-52
2022/08/27 10:45:11;;;;;;;7.17;2.10;;;22.00;99.90;;;;;;4861540;29;20335;-53
2022/08/27 10:47:59;;;;;;;11.47;2.00;;;22.10;99.90;;;;;;4865151;29;20248;-53
2022/08/27 10:50:33;;;;;;;6.43;2.00;;;22.50;99.90;;;;;;4868521;29;20793;-52
2022/08/27 10:53:06;;;;;;;6.83;2.00;;;23.20;99.90;;;;;;4865200;29;20256;-52
2022/08/27 10:55:40;;;;;;;9.57;2.27;;;23.60;99.90;;;;;;4864100;29;20401;-53
2022/08/27 10:58:22;;;;;;;7.70;2.40;;;23.60;99.90;;;;;;4864065;29;20677;-53
2022/08/27 11:00:57;;;;;;;5.40;2.00;;;23.60;99.90;;;;;;4868340;29;20252;-53
2022/08/27 11:03:33;;;;;;;8.50;2.10;;;23.60;99.90;;;;;;4867059;29;20233;-52
2022/08/27 11:06:08;;;;;;;9.20;2.40;;;23.60;99.90;;;;;;4867710;29;20238;-53
2022/08/27 11:08:40;;;;;;;7.70;2.07;;;24.10;99.90;;;;;;4865153;29;20242;-52
2022/08/27 11:11:15;;;;;;;9.73;2.30;;;24.50;99.90;;;;;;4864804;29;20742;-50
2022/08/27 11:14:08;;;;;;;6.70;2.20;;;25.00;99.90;;;;;;4865035;29;20235;-54
2022/08/27 11:16:44;;;;;;;8.02;2.17;;;25.40;99.90;;;;;;4865105;29;20447;-52
2022/08/27 11:19:19;;;;;;;6.50;2.03;;;26.20;99.90;;;;;;4866725;29;20232;-55
2022/08/27 11:22:04;;;;;;;6.70;1.77;;;26.50;99.90;;;;;;4867441;29;20259;-52
2022/08/27 11:24:38;;;;;;;7.43;2.00;;;26.90;99.90;;;;;;4867149;29;20232;-54
2022/08/27 11:27:08;;;;;;;8.23;1.97;;;26.90;99.90;;;;;;4852234;29;20240;-53
2022/08/27 11:29:44;;;;;;;7.50;1.97;;;26.90;99.90;;;;;;4866479;29;20242;-51
2022/08/27 11:32:22;;;;;;;8.87;1.87;;;26.90;99.90;;;;;;4865746;29;20787;-54
2022/08/27 11:34:53;;;;;;;6.27;2.90;;;27.30;99.90;;;;;;4865460;29;20233;-55
2022/08/27 11:37:44;;;;;;;8.07;2.20;;;27.00;99.90;;;;;;4867302;29;20813;-55
2022/08/27 11:40:36;;;;;;;7.87;2.13;;;27.20;99.90;;;;;;4865071;29;20323;-54
2022/08/27 11:43:08;;;;;;;7.40;1.73;;;26.80;99.90;;;;;;4860027;29;20725;-53
2022/08/27 11:45:38;;;;;;;5.60;1.80;;;26.50;99.90;;;;;;4858898;29;20237;-53
2022/08/27 11:48:18;;;;;;;5.40;1.80;;;26.70;99.90;;;;;;4863216;29;20242;-54
2022/08/27 11:50:55;;;;;;;6.63;2.00;;;26.50;99.90;;;;;;4867017;29;20724;-54
2022/08/27 11:53:27;;;;;;;8.60;1.83;;;26.20;99.90;;;;;;4867180;29;20331;-54
2022/08/27 11:55:56;;;;;;;7.47;2.00;;;26.40;99.90;;;;;;4867698;29;20236;-53
2022/08/27 11:58:29;;;;;;;5.67;1.40;;;26.20;99.90;;;;;;4865495;29;20749;-54
2022/08/27 12:01:25;;;;;;;4.77;1.50;;;26.00;99.90;;;;;;4866048;29;20241;-55
2022/08/27 12:04:02;;;;;;;5.10;1.40;;;25.50;99.90;;;;;;4861402;29;20242;-54
2022/08/27 12:06:42;;;;;;;5.13;1.70;;;25.40;99.90;;;;;;4871407;29;20660;-54
2022/08/27 12:09:17;;;;;;;6.20;1.50;;;25.20;99.90;;;;;;4869870;29;20250;-55
2022/08/27 12:11:56;;;;;;;4.77;1.40;;;25.40;99.90;;;;;;4868859;29;20246;-54
2022/08/27 12:14:42;;;;;;;3.87;1.33;;;25.60;99.90;;;;;;4863714;29;20339;-55
2022/08/27 12:17:21;;;;;;;6.13;1.63;;;25.80;99.90;;;;;;4868757;29;20241;-53
2022/08/27 12:20:04;;;;;;;4.93;1.40;;;25.60;99.90;;;;;;4863303;29;20251;-54
2022/08/27 12:25:40;;;;;;;7.23;1.63;;;25.70;99.90;;;;;;4846753;29;20251;-52
2022/08/27 12:28:09;;;;;;;6.43;1.37;;;25.90;99.90;;;;;;4866151;29;20235;-52
2022/08/27 12:30:48;;;;;;;8.53;1.70;;;25.80;99.90;;;;;;4866040;29;20356;-54
2022/08/27 12:33:26;;;;;;;5.63;1.53;;;25.80;99.90;;;;;;4865679;29;20693;-53
2022/08/27 12:35:57;;;;;;;8.47;1.70;;;25.50;99.90;;;;;;4865138;29;20731;-53
2022/08/27 12:38:41;;;;;;;6.30;1.67;;;25.20;99.90;;;;;;4869774;29;20243;-54
2022/08/27 12:41:23;;;;;;;7.27;1.60;;;25.10;99.90;;;;;;4870693;29;20715;-55
2022/08/27 12:44:03;;;;;;;6.57;1.80;;;25.30;99.90;;;;;;4870584;29;20244;-54
2022/08/27 12:46:33;;;;;;;8.07;1.67;;;25.30;99.90;;;;;;4871572;29;20256;-53
2022/08/27 12:49:03;;;;;;;9.37;1.80;;;25.00;99.90;;;;;;4870020;29;20340;-54
2022/08/27 12:51:53;;;;;;;7.07;1.77;;;24.90;99.90;;;;;;4869570;29;20228;-53
2022/08/27 12:54:36;;;;;;;5.77;1.63;;;25.20;99.90;;;;;;4871161;29;20245;-54
2022/08/27 12:57:12;;;;;;;6.63;1.63;;;25.10;99.90;;;;;;4869427;29;20241;-54
2022/08/27 12:59:53;;;;;;;6.83;1.40;;;24.70;99.90;;;;;;4866034;29;20247;-54
2022/08/27 13:02:54;;;;;;;5.93;1.53;;;24.80;99.90;;;;;;4855782;29;20746;-53
2022/08/27 13:05:24;;;;;;;5.10;1.70;;;24.70;99.90;;;;;;4865372;29;20652;-53
2022/08/27 13:07:53;;;;;;;6.40;1.50;;;24.50;99.90;;;;;;4866965;29;20239;-53
2022/08/27 13:10:29;;;;;;;6.80;1.50;;;24.30;99.90;;;;;;4865965;29;20239;-53
2022/08/27 13:13:05;;;;;;;4.80;1.50;;;24.20;99.90;;;;;;4864207;29;20259;-54
2022/08/27 13:15:34;;;;;;;10.10;1.90;;;24.20;99.90;;;;;;4864348;29;20779;-55
2022/08/27 13:18:06;;;;;;;6.43;1.40;;;24.30;99.90;;;;;;4861988;29;20236;-54
2022/08/27 13:20:37;;;;;;;7.00;2.20;;;24.30;99.90;;;;;;4862693;29;20760;-55
2022/08/27 13:23:13;;;;;;;8.60;1.60;;;24.40;99.90;;;;;;4867831;29;20272;-55